sensor_id;sensor_type;location;lat;lon;timestamp;P1;durP1;ratioP1;P2;durP2;ratioP2
74375;SDS011;62812;55.188;61.302;2022-12-18T00:02:04;19.48;;;8.48;;
74375;SDS011;62812;55.188;61.302;2022-12-18T00:04:31;20.92;;;9.38;;
74375;SDS011;62812;55.188;61.302;2022-12-18T00:06:57;23.88;;;9.65;;
74375;SDS011;62812;55.188;61.302;2022-12-18T00:09:25;17.13;;;7.28;;
74375;SDS011;62812;55.188;61.302;2022-12-18T00:11:52;24.05;;;9.18;;
74375;SDS011;62812;55.188;61.302;2022-12-18T00:14:18;18.58;;;8.35;;
74375;SDS011;62812;55.188;61.302;2022-12-18T00:16:45;17.30;;;7.82;;
74375;SDS011;62812;55.188;61.302;2022-12-18T00:19:12;23.23;;;10.02;;
74375;SDS011;62812;55.188;61.302;2022-12-18T00:21:42;15.30;;;6.75;;
74375;SDS011;62812;55.188;61.302;2022-12-18T00:24:09;20.55;;;8.55;;
74375;SDS011;62812;55.188;61.302;2022-12-18T00:26:38;20.60;;;9.23;;
74375;SDS011;62812;55.188;61.302;2022-12-18T00:29:06;23.67;;;9.88;;
74375;SDS011;62812;55.188;61.302;2022-12-18T00:31:34;19.15;;;8.38;;
74375;SDS011;62812;55.188;61.302;2022-12-18T00:34:00;15.20;;;6.75;;
74375;SDS011;62812;55.188;61.302;2022-12-18T00:36:28;19.25;;;9.30;;
74375;SDS011;62812;55.188;61.302;2022-12-18T00:38:56;12.43;;;4.93;;
74375;SDS011;62812;55.188;61.302;2022-12-18T00:41:24;20.73;;;8.20;;
74375;SDS011;62812;55.188;61.302;2022-12-18T00:44:11;21.27;;;7.97;;
74375;SDS011;62812;55.188;61.302;2022-12-18T00:46:40;20.60;;;8.85;;
74375;SDS011;62812;55.188;61.302;2022-12-18T00:49:07;23.25;;;9.45;;
74375;SDS011;62812;55.188;61.302;2022-12-18T00:51:33;24.27;;;9.52;;
74375;SDS011;62812;55.188;61.302;2022-12-18T00:54:00;17.30;;;7.60;;
74375;SDS011;62812;55.188;61.302;2022-12-18T00:56:27;19.63;;;8.32;;
74375;SDS011;62812;55.188;61.302;2022-12-18T00:58:53;19.58;;;9.68;;
74375;SDS011;62812;55.188;61.302;2022-12-18T01:01:21;15.40;;;5.45;;
74375;SDS011;62812;55.188;61.302;2022-12-18T01:03:47;21.08;;;9.10;;
74375;SDS011;62812;55.188;61.302;2022-12-18T01:06:14;16.92;;;7.07;;
74375;SDS011;62812;55.188;61.302;2022-12-18T01:08:42;15.23;;;6.47;;
74375;SDS011;62812;55.188;61.302;2022-12-18T01:11:09;18.80;;;7.93;;
74375;SDS011;62812;55.188;61.302;2022-12-18T01:13:37;21.52;;;7.55;;
74375;SDS011;62812;55.188;61.302;2022-12-18T01:16:04;15.43;;;5.43;;
74375;SDS011;62812;55.188;61.302;2022-12-18T01:18:32;18.85;;;8.45;;
74375;SDS011;62812;55.188;61.302;2022-12-18T01:20:58;21.00;;;8.15;;
74375;SDS011;62812;55.188;61.302;2022-12-18T01:23:25;22.85;;;9.18;;
74375;SDS011;62812;55.188;61.302;2022-12-18T01:25:51;24.77;;;9.30;;
74375;SDS011;62812;55.188;61.302;2022-12-18T01:28:18;20.60;;;8.50;;
74375;SDS011;62812;55.188;61.302;2022-12-18T01:30:44;14.73;;;5.93;;
74375;SDS011;62812;55.188;61.302;2022-12-18T01:33:10;14.85;;;5.72;;
74375;SDS011;62812;55.188;61.302;2022-12-18T01:35:41;18.90;;;8.57;;
74375;SDS011;62812;55.188;61.302;2022-12-18T01:38:08;25.77;;;12.48;;
74375;SDS011;62812;55.188;61.302;2022-12-18T01:40:35;17.55;;;6.72;;
74375;SDS011;62812;55.188;61.302;2022-12-18T01:43:02;21.67;;;8.75;;
74375;SDS011;62812;55.188;61.302;2022-12-18T01:45:28;16.17;;;6.55;;
74375;SDS011;62812;55.188;61.302;2022-12-18T01:47:58;9.75;;;4.70;;
74375;SDS011;62812;55.188;61.302;2022-12-18T01:50:28;21.98;;;8.05;;
74375;SDS011;62812;55.188;61.302;2022-12-18T01:52:58;17.70;;;6.80;;
74375;SDS011;62812;55.188;61.302;2022-12-18T01:55:28;21.83;;;8.80;;
74375;SDS011;62812;55.188;61.302;2022-12-18T01:57:57;17.95;;;7.88;;
74375;SDS011;62812;55.188;61.302;2022-12-18T02:00:25;17.75;;;6.13;;
74375;SDS011;62812;55.188;61.302;2022-12-18T02:02:52;20.85;;;7.00;;
74375;SDS011;62812;55.188;61.302;2022-12-18T02:05:23;20.20;;;8.15;;
74375;SDS011;62812;55.188;61.302;2022-12-18T02:08:03;18.63;;;6.90;;
74375;SDS011;62812;55.188;61.302;2022-12-18T02:10:38;13.77;;;6.07;;
74375;SDS011;62812;55.188;61.302;2022-12-18T02:13:13;21.42;;;7.57;;
74375;SDS011;62812;55.188;61.302;2022-12-18T02:15:48;20.00;;;8.05;;
74375;SDS011;62812;55.188;61.302;2022-12-18T02:18:24;19.90;;;8.68;;
74375;SDS011;62812;55.188;61.302;2022-12-18T02:20:54;24.60;;;8.15;;
74375;SDS011;62812;55.188;61.302;2022-12-18T02:23:31;20.65;;;8.43;;
74375;SDS011;62812;55.188;61.302;2022-12-18T02:26:15;15.00;;;6.45;;
74375;SDS011;62812;55.188;61.302;2022-12-18T02:28:45;20.83;;;7.70;;
74375;SDS011;62812;55.188;61.302;2022-12-18T02:31:18;16.50;;;5.82;;
74375;SDS011;62812;55.188;61.302;2022-12-18T02:33:50;20.08;;;7.40;;
74375;SDS011;62812;55.188;61.302;2022-12-18T02:36:20;18.67;;;8.15;;
74375;SDS011;62812;55.188;61.302;2022-12-18T02:38:48;19.60;;;8.20;;
74375;SDS011;62812;55.188;61.302;2022-12-18T02:41:18;14.90;;;5.68;;
74375;SDS011;62812;55.188;61.302;2022-12-18T02:43:46;9.20;;;4.05;;
74375;SDS011;62812;55.188;61.302;2022-12-18T02:46:23;19.55;;;8.43;;
74375;SDS011;62812;55.188;61.302;2022-12-18T02:48:57;27.95;;;8.82;;
74375;SDS011;62812;55.188;61.302;2022-12-18T02:51:30;25.40;;;12.02;;
74375;SDS011;62812;55.188;61.302;2022-12-18T02:54:05;24.30;;;9.32;;
74375;SDS011;62812;55.188;61.302;2022-12-18T02:56:38;23.75;;;9.15;;
74375;SDS011;62812;55.188;61.302;2022-12-18T02:59:11;20.70;;;8.27;;
74375;SDS011;62812;55.188;61.302;2022-12-18T03:01:43;17.02;;;7.20;;
74375;SDS011;62812;55.188;61.302;2022-12-18T03:04:16;19.65;;;7.85;;
74375;SDS011;62812;55.188;61.302;2022-12-18T03:06:47;18.48;;;7.45;;
74375;SDS011;62812;55.188;61.302;2022-12-18T03:09:17;18.55;;;7.97;;
74375;SDS011;62812;55.188;61.302;2022-12-18T03:11:52;17.42;;;7.35;;
74375;SDS011;62812;55.188;61.302;2022-12-18T03:14:40;24.90;;;9.02;;
74375;SDS011;62812;55.188;61.302;2022-12-18T03:17:09;20.10;;;8.77;;
74375;SDS011;62812;55.188;61.302;2022-12-18T03:19:39;19.58;;;8.30;;
74375;SDS011;62812;55.188;61.302;2022-12-18T03:22:08;19.92;;;8.20;;
74375;SDS011;62812;55.188;61.302;2022-12-18T03:24:36;20.60;;;8.07;;
74375;SDS011;62812;55.188;61.302;2022-12-18T03:27:07;15.68;;;7.50;;
74375;SDS011;62812;55.188;61.302;2022-12-18T03:29:37;25.67;;;9.60;;
74375;SDS011;62812;55.188;61.302;2022-12-18T03:32:07;21.95;;;8.48;;
74375;SDS011;62812;55.188;61.302;2022-12-18T03:34:37;18.20;;;8.18;;
74375;SDS011;62812;55.188;61.302;2022-12-18T03:37:06;23.25;;;8.30;;
74375;SDS011;62812;55.188;61.302;2022-12-18T03:39:33;23.27;;;8.80;;
74375;SDS011;62812;55.188;61.302;2022-12-18T03:42:01;26.52;;;13.20;;
74375;SDS011;62812;55.188;61.302;2022-12-18T03:44:35;23.73;;;10.43;;
74375;SDS011;62812;55.188;61.302;2022-12-18T03:47:11;22.63;;;10.10;;
74375;SDS011;62812;55.188;61.302;2022-12-18T03:49:43;21.17;;;9.48;;
74375;SDS011;62812;55.188;61.302;2022-12-18T03:52:17;20.30;;;9.85;;
74375;SDS011;62812;55.188;61.302;2022-12-18T03:54:48;23.75;;;9.15;;
74375;SDS011;62812;55.188;61.302;2022-12-18T03:57:15;17.92;;;7.55;;
74375;SDS011;62812;55.188;61.302;2022-12-18T03:59:49;17.83;;;7.97;;
74375;SDS011;62812;55.188;61.302;2022-12-18T04:04:43;16.45;;;6.85;;
74375;SDS011;62812;55.188;61.302;2022-12-18T04:07:13;25.37;;;11.77;;
74375;SDS011;62812;55.188;61.302;2022-12-18T04:09:41;21.67;;;9.70;;
74375;SDS011;62812;55.188;61.302;2022-12-18T04:12:09;23.40;;;8.93;;
74375;SDS011;62812;55.188;61.302;2022-12-18T04:14:35;25.80;;;9.48;;
74375;SDS011;62812;55.188;61.302;2022-12-18T04:17:03;25.40;;;9.32;;
74375;SDS011;62812;55.188;61.302;2022-12-18T04:19:29;19.02;;;8.68;;
74375;SDS011;62812;55.188;61.302;2022-12-18T04:21:56;20.20;;;8.30;;
74375;SDS011;62812;55.188;61.302;2022-12-18T04:24:22;19.80;;;7.55;;
74375;SDS011;62812;55.188;61.302;2022-12-18T04:26:49;16.92;;;7.85;;
74375;SDS011;62812;55.188;61.302;2022-12-18T04:29:15;14.52;;;6.60;;
74375;SDS011;62812;55.188;61.302;2022-12-18T04:31:42;25.00;;;9.43;;
74375;SDS011;62812;55.188;61.302;2022-12-18T04:34:09;16.30;;;6.63;;
74375;SDS011;62812;55.188;61.302;2022-12-18T04:36:36;21.38;;;8.95;;
74375;SDS011;62812;55.188;61.302;2022-12-18T04:39:02;27.58;;;9.43;;
74375;SDS011;62812;55.188;61.302;2022-12-18T04:41:29;20.35;;;8.20;;
74375;SDS011;62812;55.188;61.302;2022-12-18T04:43:55;20.60;;;7.60;;
74375;SDS011;62812;55.188;61.302;2022-12-18T04:46:22;17.98;;;7.97;;
74375;SDS011;62812;55.188;61.302;2022-12-18T04:48:48;19.90;;;7.90;;
74375;SDS011;62812;55.188;61.302;2022-12-18T04:51:16;18.35;;;7.85;;
74375;SDS011;62812;55.188;61.302;2022-12-18T04:53:43;20.98;;;7.50;;
74375;SDS011;62812;55.188;61.302;2022-12-18T04:56:10;21.63;;;9.32;;
74375;SDS011;62812;55.188;61.302;2022-12-18T04:58:38;27.15;;;10.00;;
74375;SDS011;62812;55.188;61.302;2022-12-18T05:01:07;23.77;;;9.43;;
74375;SDS011;62812;55.188;61.302;2022-12-18T05:03:46;21.73;;;8.63;;
74375;SDS011;62812;55.188;61.302;2022-12-18T05:06:13;23.10;;;8.80;;
74375;SDS011;62812;55.188;61.302;2022-12-18T05:08:41;23.92;;;9.75;;
74375;SDS011;62812;55.188;61.302;2022-12-18T05:11:09;26.77;;;10.05;;
74375;SDS011;62812;55.188;61.302;2022-12-18T05:13:37;20.38;;;8.52;;
74375;SDS011;62812;55.188;61.302;2022-12-18T05:16:05;22.73;;;9.15;;
74375;SDS011;62812;55.188;61.302;2022-12-18T05:18:32;20.23;;;8.88;;
74375;SDS011;62812;55.188;61.302;2022-12-18T05:20:58;23.17;;;8.35;;
74375;SDS011;62812;55.188;61.302;2022-12-18T05:23:25;23.52;;;9.68;;
74375;SDS011;62812;55.188;61.302;2022-12-18T05:25:54;19.67;;;8.65;;
74375;SDS011;62812;55.188;61.302;2022-12-18T05:28:22;21.63;;;8.85;;
74375;SDS011;62812;55.188;61.302;2022-12-18T05:30:50;28.38;;;13.70;;
74375;SDS011;62812;55.188;61.302;2022-12-18T05:33:20;26.75;;;10.90;;
74375;SDS011;62812;55.188;61.302;2022-12-18T05:35:49;23.95;;;10.05;;
74375;SDS011;62812;55.188;61.302;2022-12-18T05:38:16;21.05;;;9.63;;
74375;SDS011;62812;55.188;61.302;2022-12-18T05:40:43;22.27;;;9.80;;
74375;SDS011;62812;55.188;61.302;2022-12-18T05:43:11;23.42;;;9.23;;
74375;SDS011;62812;55.188;61.302;2022-12-18T05:45:40;27.75;;;9.60;;
74375;SDS011;62812;55.188;61.302;2022-12-18T05:48:07;23.10;;;9.88;;
74375;SDS011;62812;55.188;61.302;2022-12-18T05:50:37;22.65;;;9.45;;
74375;SDS011;62812;55.188;61.302;2022-12-18T05:53:05;27.90;;;10.45;;
74375;SDS011;62812;55.188;61.302;2022-12-18T05:55:32;23.63;;;10.25;;
74375;SDS011;62812;55.188;61.302;2022-12-18T05:57:59;21.25;;;8.82;;
74375;SDS011;62812;55.188;61.302;2022-12-18T06:00:26;25.48;;;10.18;;
74375;SDS011;62812;55.188;61.302;2022-12-18T06:02:53;21.45;;;9.13;;
74375;SDS011;62812;55.188;61.302;2022-12-18T06:05:19;28.27;;;11.35;;
74375;SDS011;62812;55.188;61.302;2022-12-18T06:07:46;23.27;;;9.30;;
74375;SDS011;62812;55.188;61.302;2022-12-18T06:10:12;21.77;;;8.95;;
74375;SDS011;62812;55.188;61.302;2022-12-18T06:12:39;22.73;;;10.15;;
74375;SDS011;62812;55.188;61.302;2022-12-18T06:15:06;21.48;;;9.23;;
74375;SDS011;62812;55.188;61.302;2022-12-18T06:17:34;22.45;;;9.38;;
74375;SDS011;62812;55.188;61.302;2022-12-18T06:20:01;23.85;;;10.57;;
74375;SDS011;62812;55.188;61.302;2022-12-18T06:22:28;25.92;;;10.40;;
74375;SDS011;62812;55.188;61.302;2022-12-18T06:24:56;25.77;;;10.80;;
74375;SDS011;62812;55.188;61.302;2022-12-18T06:27:24;22.02;;;10.70;;
74375;SDS011;62812;55.188;61.302;2022-12-18T06:29:52;25.40;;;10.60;;
74375;SDS011;62812;55.188;61.302;2022-12-18T06:32:19;30.25;;;10.80;;
74375;SDS011;62812;55.188;61.302;2022-12-18T06:34:47;27.67;;;11.80;;
74375;SDS011;62812;55.188;61.302;2022-12-18T06:37:13;21.40;;;10.45;;
74375;SDS011;62812;55.188;61.302;2022-12-18T06:39:40;22.60;;;9.73;;
74375;SDS011;62812;55.188;61.302;2022-12-18T06:42:06;23.42;;;11.00;;
74375;SDS011;62812;55.188;61.302;2022-12-18T06:44:33;27.73;;;11.82;;
74375;SDS011;62812;55.188;61.302;2022-12-18T06:47:00;25.00;;;11.13;;
74375;SDS011;62812;55.188;61.302;2022-12-18T06:49:27;18.98;;;6.70;;
74375;SDS011;62812;55.188;61.302;2022-12-18T06:51:55;26.30;;;10.32;;
74375;SDS011;62812;55.188;61.302;2022-12-18T06:54:22;31.95;;;12.50;;
74375;SDS011;62812;55.188;61.302;2022-12-18T06:56:48;30.67;;;12.68;;
74375;SDS011;62812;55.188;61.302;2022-12-18T06:59:15;30.77;;;12.40;;
74375;SDS011;62812;55.188;61.302;2022-12-18T07:01:41;26.98;;;11.48;;
74375;SDS011;62812;55.188;61.302;2022-12-18T07:04:08;34.38;;;12.18;;
74375;SDS011;62812;55.188;61.302;2022-12-18T07:06:34;28.67;;;12.07;;
74375;SDS011;62812;55.188;61.302;2022-12-18T07:09:02;26.83;;;11.23;;
74375;SDS011;62812;55.188;61.302;2022-12-18T07:11:29;43.90;;;18.17;;
74375;SDS011;62812;55.188;61.302;2022-12-18T07:13:57;33.00;;;13.90;;
74375;SDS011;62812;55.188;61.302;2022-12-18T07:16:24;29.92;;;13.15;;
74375;SDS011;62812;55.188;61.302;2022-12-18T07:18:50;30.65;;;12.52;;
74375;SDS011;62812;55.188;61.302;2022-12-18T07:21:17;32.47;;;13.70;;
74375;SDS011;62812;55.188;61.302;2022-12-18T07:23:47;31.95;;;12.73;;
74375;SDS011;62812;55.188;61.302;2022-12-18T07:26:16;28.80;;;13.07;;
74375;SDS011;62812;55.188;61.302;2022-12-18T07:28:44;30.67;;;11.75;;
74375;SDS011;62812;55.188;61.302;2022-12-18T07:31:11;24.80;;;11.90;;
74375;SDS011;62812;55.188;61.302;2022-12-18T07:33:39;28.00;;;11.23;;
74375;SDS011;62812;55.188;61.302;2022-12-18T07:36:06;24.02;;;9.18;;
74375;SDS011;62812;55.188;61.302;2022-12-18T07:38:34;27.95;;;12.70;;
74375;SDS011;62812;55.188;61.302;2022-12-18T07:41:01;30.92;;;13.10;;
74375;SDS011;62812;55.188;61.302;2022-12-18T07:43:32;37.55;;;13.20;;
74375;SDS011;62812;55.188;61.302;2022-12-18T07:46:01;31.23;;;12.50;;
74375;SDS011;62812;55.188;61.302;2022-12-18T07:48:46;35.15;;;12.65;;
74375;SDS011;62812;55.188;61.302;2022-12-18T07:51:19;33.35;;;13.23;;
74375;SDS011;62812;55.188;61.302;2022-12-18T07:54:52;27.38;;;12.48;;
74375;SDS011;62812;55.188;61.302;2022-12-18T07:57:18;27.88;;;12.32;;
74375;SDS011;62812;55.188;61.302;2022-12-18T07:59:46;29.98;;;12.98;;
74375;SDS011;62812;55.188;61.302;2022-12-18T08:02:13;35.22;;;14.07;;
74375;SDS011;62812;55.188;61.302;2022-12-18T08:04:40;29.60;;;13.32;;
74375;SDS011;62812;55.188;61.302;2022-12-18T08:07:06;36.50;;;13.73;;
74375;SDS011;62812;55.188;61.302;2022-12-18T08:09:38;27.83;;;12.85;;
74375;SDS011;62812;55.188;61.302;2022-12-18T08:12:05;35.05;;;14.13;;
74375;SDS011;62812;55.188;61.302;2022-12-18T08:14:34;34.67;;;13.40;;
74375;SDS011;62812;55.188;61.302;2022-12-18T08:17:07;32.35;;;13.52;;
74375;SDS011;62812;55.188;61.302;2022-12-18T08:19:56;33.75;;;15.82;;
74375;SDS011;62812;55.188;61.302;2022-12-18T08:22:28;32.35;;;12.27;;
74375;SDS011;62812;55.188;61.302;2022-12-18T08:24:55;34.25;;;13.43;;
74375;SDS011;62812;55.188;61.302;2022-12-18T08:27:25;35.35;;;13.68;;
74375;SDS011;62812;55.188;61.302;2022-12-18T08:29:53;37.00;;;13.98;;
74375;SDS011;62812;55.188;61.302;2022-12-18T08:32:21;35.60;;;14.88;;
74375;SDS011;62812;55.188;61.302;2022-12-18T08:34:50;37.90;;;14.93;;
74375;SDS011;62812;55.188;61.302;2022-12-18T08:37:16;38.75;;;16.25;;
74375;SDS011;62812;55.188;61.302;2022-12-18T08:39:43;36.08;;;14.45;;
74375;SDS011;62812;55.188;61.302;2022-12-18T08:42:09;39.63;;;16.17;;
74375;SDS011;62812;55.188;61.302;2022-12-18T08:44:55;38.65;;;15.85;;
74375;SDS011;62812;55.188;61.302;2022-12-18T08:47:24;43.08;;;15.43;;
74375;SDS011;62812;55.188;61.302;2022-12-18T08:49:52;36.47;;;15.25;;
74375;SDS011;62812;55.188;61.302;2022-12-18T08:52:18;41.35;;;15.52;;
74375;SDS011;62812;55.188;61.302;2022-12-18T08:54:45;44.88;;;16.55;;
74375;SDS011;62812;55.188;61.302;2022-12-18T08:57:11;42.30;;;14.85;;
74375;SDS011;62812;55.188;61.302;2022-12-18T08:59:40;39.03;;;14.35;;
74375;SDS011;62812;55.188;61.302;2022-12-18T09:02:07;39.50;;;15.63;;
74375;SDS011;62812;55.188;61.302;2022-12-18T09:04:36;40.67;;;16.40;;
74375;SDS011;62812;55.188;61.302;2022-12-18T09:07:03;40.20;;;16.88;;
74375;SDS011;62812;55.188;61.302;2022-12-18T09:09:30;51.45;;;16.35;;
74375;SDS011;62812;55.188;61.302;2022-12-18T09:11:58;41.78;;;16.58;;
74375;SDS011;62812;55.188;61.302;2022-12-18T09:14:25;44.38;;;16.60;;
74375;SDS011;62812;55.188;61.302;2022-12-18T09:16:51;49.28;;;17.63;;
74375;SDS011;62812;55.188;61.302;2022-12-18T09:19:21;41.20;;;14.30;;
74375;SDS011;62812;55.188;61.302;2022-12-18T09:21:49;43.38;;;17.23;;
74375;SDS011;62812;55.188;61.302;2022-12-18T09:24:15;42.80;;;15.70;;
74375;SDS011;62812;55.188;61.302;2022-12-18T09:26:46;54.67;;;19.35;;
74375;SDS011;62812;55.188;61.302;2022-12-18T09:29:18;47.65;;;18.40;;
74375;SDS011;62812;55.188;61.302;2022-12-18T09:31:45;47.72;;;20.15;;
74375;SDS011;62812;55.188;61.302;2022-12-18T09:34:11;45.28;;;18.45;;
74375;SDS011;62812;55.188;61.302;2022-12-18T09:36:38;43.28;;;15.75;;
74375;SDS011;62812;55.188;61.302;2022-12-18T09:39:06;44.75;;;17.35;;
74375;SDS011;62812;55.188;61.302;2022-12-18T09:41:39;39.35;;;17.20;;
74375;SDS011;62812;55.188;61.302;2022-12-18T09:44:14;40.55;;;15.98;;
74375;SDS011;62812;55.188;61.302;2022-12-18T09:46:45;40.40;;;17.58;;
74375;SDS011;62812;55.188;61.302;2022-12-18T09:49:16;44.65;;;17.80;;
74375;SDS011;62812;55.188;61.302;2022-12-18T09:51:46;35.60;;;15.90;;
74375;SDS011;62812;55.188;61.302;2022-12-18T09:54:26;41.92;;;17.08;;
74375;SDS011;62812;55.188;61.302;2022-12-18T09:56:58;50.70;;;24.50;;
74375;SDS011;62812;55.188;61.302;2022-12-18T09:59:26;44.90;;;18.75;;
74375;SDS011;62812;55.188;61.302;2022-12-18T10:01:58;43.38;;;18.40;;
74375;SDS011;62812;55.188;61.302;2022-12-18T10:04:25;36.17;;;16.20;;
74375;SDS011;62812;55.188;61.302;2022-12-18T10:07:00;31.60;;;14.77;;
74375;SDS011;62812;55.188;61.302;2022-12-18T10:09:36;38.15;;;14.80;;
74375;SDS011;62812;55.188;61.302;2022-12-18T10:12:12;35.33;;;14.98;;
74375;SDS011;62812;55.188;61.302;2022-12-18T10:14:46;33.78;;;15.23;;
74375;SDS011;62812;55.188;61.302;2022-12-18T10:17:25;33.28;;;14.18;;
74375;SDS011;62812;55.188;61.302;2022-12-18T10:19:59;28.25;;;12.98;;
74375;SDS011;62812;55.188;61.302;2022-12-18T10:22:39;34.22;;;15.50;;
74375;SDS011;62812;55.188;61.302;2022-12-18T10:25:23;36.25;;;14.30;;
74375;SDS011;62812;55.188;61.302;2022-12-18T10:28:20;33.65;;;13.88;;
74375;SDS011;62812;55.188;61.302;2022-12-18T10:30:49;36.53;;;15.38;;
74375;SDS011;62812;55.188;61.302;2022-12-18T10:33:16;30.55;;;13.13;;
74375;SDS011;62812;55.188;61.302;2022-12-18T10:35:44;33.83;;;16.58;;
74375;SDS011;62812;55.188;61.302;2022-12-18T10:38:22;35.15;;;15.50;;
74375;SDS011;62812;55.188;61.302;2022-12-18T10:40:53;37.33;;;15.93;;
74375;SDS011;62812;55.188;61.302;2022-12-18T10:46:04;31.15;;;14.25;;
74375;SDS011;62812;55.188;61.302;2022-12-18T10:51:18;34.05;;;14.55;;
74375;SDS011;62812;55.188;61.302;2022-12-18T10:53:53;34.80;;;13.60;;
74375;SDS011;62812;55.188;61.302;2022-12-18T10:56:24;43.30;;;16.00;;
74375;SDS011;62812;55.188;61.302;2022-12-18T10:58:59;45.45;;;17.70;;
74375;SDS011;62812;55.188;61.302;2022-12-18T11:01:28;38.65;;;14.98;;
74375;SDS011;62812;55.188;61.302;2022-12-18T11:04:13;36.40;;;15.35;;
74375;SDS011;62812;55.188;61.302;2022-12-18T11:06:58;40.03;;;15.05;;
74375;SDS011;62812;55.188;61.302;2022-12-18T11:09:30;34.22;;;14.13;;
74375;SDS011;62812;55.188;61.302;2022-12-18T11:11:59;42.10;;;15.98;;
74375;SDS011;62812;55.188;61.302;2022-12-18T11:14:28;40.47;;;17.08;;
74375;SDS011;62812;55.188;61.302;2022-12-18T11:16:56;37.25;;;15.85;;
74375;SDS011;62812;55.188;61.302;2022-12-18T11:19:30;36.40;;;16.17;;
74375;SDS011;62812;55.188;61.302;2022-12-18T11:22:00;39.75;;;16.30;;
74375;SDS011;62812;55.188;61.302;2022-12-18T11:24:30;42.70;;;17.25;;
74375;SDS011;62812;55.188;61.302;2022-12-18T11:27:02;41.50;;;17.90;;
74375;SDS011;62812;55.188;61.302;2022-12-18T11:29:33;42.40;;;15.73;;
74375;SDS011;62812;55.188;61.302;2022-12-18T11:34:55;42.85;;;17.10;;
74375;SDS011;62812;55.188;61.302;2022-12-18T11:37:28;39.15;;;16.33;;
74375;SDS011;62812;55.188;61.302;2022-12-18T11:39:59;41.63;;;17.35;;
74375;SDS011;62812;55.188;61.302;2022-12-18T11:42:35;34.70;;;16.02;;
74375;SDS011;62812;55.188;61.302;2022-12-18T11:45:08;39.28;;;16.65;;
74375;SDS011;62812;55.188;61.302;2022-12-18T11:48:00;45.97;;;17.08;;
74375;SDS011;62812;55.188;61.302;2022-12-18T11:50:38;33.92;;;15.35;;
74375;SDS011;62812;55.188;61.302;2022-12-18T11:53:28;35.97;;;14.82;;
74375;SDS011;62812;55.188;61.302;2022-12-18T11:56:13;45.15;;;17.33;;
74375;SDS011;62812;55.188;61.302;2022-12-18T11:59:08;38.70;;;16.65;;
74375;SDS011;62812;55.188;61.302;2022-12-18T12:01:53;41.35;;;16.65;;
74375;SDS011;62812;55.188;61.302;2022-12-18T12:04:50;45.63;;;16.95;;
74375;SDS011;62812;55.188;61.302;2022-12-18T12:07:38;38.97;;;16.52;;
74375;SDS011;62812;55.188;61.302;2022-12-18T12:10:23;33.78;;;15.52;;
74375;SDS011;62812;55.188;61.302;2022-12-18T12:13:12;36.13;;;15.65;;
74375;SDS011;62812;55.188;61.302;2022-12-18T12:15:53;38.97;;;16.13;;
74375;SDS011;62812;55.188;61.302;2022-12-18T12:18:44;38.35;;;15.50;;
74375;SDS011;62812;55.188;61.302;2022-12-18T12:24:46;35.97;;;15.63;;
74375;SDS011;62812;55.188;61.302;2022-12-18T12:27:24;39.28;;;15.00;;
74375;SDS011;62812;55.188;61.302;2022-12-18T12:30:16;36.47;;;15.60;;
74375;SDS011;62812;55.188;61.302;2022-12-18T12:32:53;37.97;;;15.85;;
74375;SDS011;62812;55.188;61.302;2022-12-18T12:35:53;39.88;;;16.13;;
74375;SDS011;62812;55.188;61.302;2022-12-18T12:38:51;35.28;;;14.60;;
74375;SDS011;62812;55.188;61.302;2022-12-18T12:41:30;38.35;;;16.30;;
74375;SDS011;62812;55.188;61.302;2022-12-18T12:44:20;30.35;;;13.88;;
74375;SDS011;62812;55.188;61.302;2022-12-18T12:47:00;32.78;;;14.75;;
74375;SDS011;62812;55.188;61.302;2022-12-18T12:49:36;34.28;;;13.07;;
74375;SDS011;62812;55.188;61.302;2022-12-18T12:52:12;31.52;;;13.63;;
74375;SDS011;62812;55.188;61.302;2022-12-18T12:54:43;33.58;;;13.43;;
74375;SDS011;62812;55.188;61.302;2022-12-18T12:57:11;31.90;;;13.05;;
74375;SDS011;62812;55.188;61.302;2022-12-18T12:59:45;28.63;;;12.13;;
74375;SDS011;62812;55.188;61.302;2022-12-18T13:02:25;34.85;;;13.00;;
74375;SDS011;62812;55.188;61.302;2022-12-18T13:05:06;26.98;;;11.02;;
74375;SDS011;62812;55.188;61.302;2022-12-18T13:07:45;27.17;;;10.52;;
74375;SDS011;62812;55.188;61.302;2022-12-18T13:13:07;21.98;;;10.52;;
74375;SDS011;62812;55.188;61.302;2022-12-18T13:15:37;21.70;;;9.57;;
74375;SDS011;62812;55.188;61.302;2022-12-18T13:18:14;25.48;;;10.65;;
74375;SDS011;62812;55.188;61.302;2022-12-18T13:20:47;23.02;;;9.55;;
74375;SDS011;62812;55.188;61.302;2022-12-18T13:23:19;22.98;;;9.45;;
74375;SDS011;62812;55.188;61.302;2022-12-18T13:26:00;22.65;;;9.05;;
74375;SDS011;62812;55.188;61.302;2022-12-18T13:29:00;21.45;;;8.60;;
74375;SDS011;62812;55.188;61.302;2022-12-18T13:34:32;19.42;;;8.43;;
74375;SDS011;62812;55.188;61.302;2022-12-18T13:40:06;22.02;;;9.75;;
74375;SDS011;62812;55.188;61.302;2022-12-18T13:46:18;22.08;;;10.15;;
74375;SDS011;62812;55.188;61.302;2022-12-18T13:49:20;22.55;;;9.25;;
74375;SDS011;62812;55.188;61.302;2022-12-18T13:51:46;22.38;;;8.98;;
74375;SDS011;62812;55.188;61.302;2022-12-18T13:54:17;23.45;;;9.32;;
74375;SDS011;62812;55.188;61.302;2022-12-18T13:56:48;24.48;;;9.23;;
74375;SDS011;62812;55.188;61.302;2022-12-18T13:59:16;23.40;;;9.63;;
74375;SDS011;62812;55.188;61.302;2022-12-18T14:04:16;24.35;;;9.48;;
74375;SDS011;62812;55.188;61.302;2022-12-18T14:06:49;25.38;;;9.80;;
74375;SDS011;62812;55.188;61.302;2022-12-18T14:09:20;23.35;;;9.82;;
74375;SDS011;62812;55.188;61.302;2022-12-18T14:11:58;26.63;;;9.70;;
74375;SDS011;62812;55.188;61.302;2022-12-18T14:17:14;24.95;;;9.55;;
74375;SDS011;62812;55.188;61.302;2022-12-18T14:19:48;26.52;;;10.45;;
74375;SDS011;62812;55.188;61.302;2022-12-18T14:22:23;31.50;;;11.05;;
74375;SDS011;62812;55.188;61.302;2022-12-18T14:25:10;21.92;;;9.95;;
74375;SDS011;62812;55.188;61.302;2022-12-18T14:27:43;21.15;;;9.93;;
74375;SDS011;62812;55.188;61.302;2022-12-18T14:33:02;22.63;;;10.35;;
74375;SDS011;62812;55.188;61.302;2022-12-18T14:35:29;24.10;;;10.43;;
74375;SDS011;62812;55.188;61.302;2022-12-18T14:38:09;23.40;;;9.50;;
74375;SDS011;62812;55.188;61.302;2022-12-18T14:40:55;31.85;;;10.20;;
74375;SDS011;62812;55.188;61.302;2022-12-18T14:46:32;22.35;;;9.65;;
74375;SDS011;62812;55.188;61.302;2022-12-18T14:49:01;28.88;;;13.07;;
74375;SDS011;62812;55.188;61.302;2022-12-18T14:51:30;21.63;;;10.00;;
74375;SDS011;62812;55.188;61.302;2022-12-18T14:53:59;23.13;;;9.43;;
74375;SDS011;62812;55.188;61.302;2022-12-18T14:56:27;25.02;;;10.35;;
74375;SDS011;62812;55.188;61.302;2022-12-18T14:59:04;25.13;;;11.02;;
74375;SDS011;62812;55.188;61.302;2022-12-18T15:01:45;23.33;;;10.35;;
74375;SDS011;62812;55.188;61.302;2022-12-18T15:04:26;20.40;;;8.98;;
74375;SDS011;62812;55.188;61.302;2022-12-18T15:07:04;18.45;;;7.60;;
74375;SDS011;62812;55.188;61.302;2022-12-18T15:12:32;24.40;;;10.45;;
74375;SDS011;62812;55.188;61.302;2022-12-18T15:15:02;25.40;;;10.15;;
74375;SDS011;62812;55.188;61.302;2022-12-18T15:17:30;25.02;;;10.18;;
74375;SDS011;62812;55.188;61.302;2022-12-18T15:19:58;22.48;;;9.15;;
74375;SDS011;62812;55.188;61.302;2022-12-18T15:22:27;25.83;;;9.57;;